Time;durP1;ratioP1;P1;durP2;ratioP2;P2;SDS_P1;SDS_P2;PMS_P1;PMS_P2;Temp;Humidity;BMP_temperature;BMP_pressure;BME280_temperature;BME280_humidity;BME280_pressure;Samples;Min_cycle;Max_cycle;Signal;HPM_P1;HPM_P2
2023/04/06 00:02:18;;;;;;;9.20;8.30;;;;;;;3.39;65.27;94817.84;5045928;28;20203;-67
2023/04/06 00:04:45;;;;;;;7.47;6.88;;;;;;;3.31;64.57;94814.56;5035460;28;20211;-65
2023/04/06 00:07:12;;;;;;;8.40;7.60;;;;;;;3.48;63.31;94806.84;5043512;28;20203;-64
2023/04/06 00:09:38;;;;;;;9.65;7.45;;;;;;;3.37;63.69;94802.78;5032994;28;20224;-67
2023/04/06 00:12:05;;;;;;;8.05;7.45;;;;;;;3.22;63.86;94800.41;5033134;28;20270;-66
2023/04/06 00:14:32;;;;;;;7.80;7.00;;;;;;;3.02;64.39;94799.75;5045497;28;20203;-66
2023/04/06 00:16:59;;;;;;;6.70;6.20;;;;;;;2.67;66.10;94805.91;5033175;28;20200;-66
2023/04/06 00:19:27;;;;;;;7.22;6.45;;;;;;;2.48;66.80;94798.50;5032702;28;20207;-65
2023/04/06 00:21:54;;;;;;;7.55;6.85;;;;;;;2.53;66.65;94797.63;5033237;28;20265;-65
2023/04/06 00:24:21;;;;;;;7.10;6.40;;;;;;;2.54;67.17;94789.28;5032473;28;20635;-64
2023/04/06 00:26:48;;;;;;;7.63;6.93;;;;;;;2.64;66.57;94785.84;5032659;28;20277;-66
2023/04/06 00:29:14;;;;;;;8.25;7.45;;;;;;;2.68;66.12;94787.50;5032375;28;20286;-66
2023/04/06 00:31:41;;;;;;;8.13;7.43;;;;;;;2.77;66.58;94789.09;5045107;28;20633;-67
2023/04/06 00:34:08;;;;;;;8.13;7.43;;;;;;;2.72;66.30;94788.31;5019862;28;20641;-68
2023/04/06 00:36:36;;;;;;;8.38;7.03;;;;;;;2.81;65.69;94777.34;5031800;28;20236;-66
2023/04/06 00:39:03;;;;;;;7.40;6.73;;;;;;;2.82;65.58;94779.84;5020900;28;20207;-64
2023/04/06 00:41:30;;;;;;;8.00;7.35;;;;;;;2.70;66.80;94775.78;5032317;28;20242;-65
2023/04/06 00:43:57;;;;;;;9.52;7.35;;;;;;;2.97;65.61;94776.41;5032041;28;20204;-66
2023/04/06 00:46:24;;;;;;;7.70;7.10;;;;;;;3.11;65.73;94777.09;5031627;28;20262;-66
2023/04/06 00:48:51;;;;;;;7.80;7.10;;;;;;;3.06;65.98;94773.78;5031989;28;20265;-65
2023/04/06 00:51:18;;;;;;;7.97;7.27;;;;;;;3.09;65.67;94778.78;5032025;28;20262;-65
2023/04/06 00:53:46;;;;;;;7.60;6.90;;;;;;;3.14;65.68;94762.00;5032003;28;20204;-65
2023/04/06 00:56:13;;;;;;;7.70;7.07;;;;;;;3.15;65.43;94768.69;5031996;28;20286;-64
2023/04/06 00:58:40;;;;;;;8.13;7.50;;;;;;;3.28;65.34;94772.72;5031867;28;20262;-65
2023/04/06 01:01:07;;;;;;;8.57;7.17;;;;;;;3.44;64.28;94772.56;5031386;28;20192;-65
2023/04/06 01:03:34;;;;;;;7.95;7.28;;;;;;;3.48;64.13;94774.19;5031571;28;20659;-65
2023/04/06 01:06:00;;;;;;;8.10;7.40;;;;;;;3.53;64.40;94764.91;5031043;28;20269;-66
2023/04/06 01:08:28;;;;;;;7.97;7.22;;;;;;;3.65;63.33;94764.78;5031381;28;20200;-67
2023/04/06 01:10:56;;;;;;;7.40;6.80;;;;;;;3.63;64.08;94763.97;5031533;28;20224;-66
2023/04/06 01:13:23;;;;;;;7.82;7.07;;;;;;;3.65;64.09;94760.59;5031379;28;20588;-66
2023/04/06 01:15:50;;;;;;;8.77;7.38;;;;;;;3.57;64.96;94761.53;5031348;28;20589;-66
2023/04/06 01:18:17;;;;;;;8.38;7.68;;;;;;;3.66;64.24;94756.41;5031540;28;20207;-66
2023/04/06 01:20:44;;;;;;;9.88;7.80;;;;;;;3.72;64.13;94762.16;5031497;28;20207;-66
2023/04/06 01:23:12;;;;;;;8.80;8.10;;;;;;;3.84;63.91;94761.19;5031477;28;20203;-66
2023/04/06 01:25:39;;;;;;;8.63;7.77;;;;;;;3.80;64.17;94763.75;5030929;28;20214;-66
2023/04/06 01:28:06;;;;;;;8.77;7.93;;;;;;;3.86;64.05;94762.00;5031114;28;20709;-63
2023/04/06 01:30:32;;;;;;;11.32;9.02;;;;;;;3.88;64.39;94752.78;5031110;28;20281;-65
2023/04/06 01:32:59;;;;;;;9.35;8.35;;;;;;;4.05;64.36;94760.91;5031656;28;20211;-66
2023/04/06 01:35:29;;;;;;;9.55;8.70;;;;;;;3.87;64.41;94746.09;5030950;28;20254;-65
2023/04/06 01:37:55;;;;;;;9.13;8.23;;;;;;;3.90;64.18;94751.06;5031417;28;20204;-66
2023/04/06 01:40:24;;;;;;;9.18;8.35;;;;;;;4.00;63.88;94752.59;5030649;28;20253;-66
2023/04/06 01:42:50;;;;;;;9.40;8.43;;;;;;;3.93;64.59;94751.03;5031252;28;20203;-65
2023/04/06 01:45:17;;;;;;;9.25;8.45;;;;;;;3.91;64.39;94750.22;5031131;28;20203;-65
2023/04/06 01:47:44;;;;;;;10.70;8.68;;;;;;;3.76;65.41;94747.88;5030569;28;20204;-65
2023/04/06 01:50:11;;;;;;;9.07;8.25;;;;;;;3.78;65.14;94748.69;5030933;28;20219;-66
2023/04/06 01:52:38;;;;;;;9.30;8.40;;;;;;;3.79;65.39;94742.81;5030940;28;20673;-65
2023/04/06 01:55:05;;;;;;;10.27;8.98;;;;;;;3.82;65.80;94747.81;5030634;28;20207;-66
2023/04/06 01:57:34;;;;;;;9.73;8.82;;;;;;;3.91;65.01;94747.72;5030960;28;20203;-65
2023/04/06 02:00:01;;;;;;;10.70;8.60;;;;;;;4.01;64.59;94744.22;5030871;28;20199;-64
2023/04/06 02:02:28;;;;;;;10.00;8.57;;;;;;;3.99;64.75;94743.38;5030461;28;20597;-65
2023/04/06 02:04:54;;;;;;;9.70;8.55;;;;;;;4.11;65.16;94734.88;5036299;28;20203;-65
2023/04/06 02:07:21;;;;;;;9.45;8.60;;;;;;;4.15;64.85;94726.44;5037034;28;20208;-65
2023/04/06 02:09:48;;;;;;;9.77;8.77;;;;;;;4.11;64.94;94729.84;5030112;28;20281;-66
2023/04/06 02:12:15;;;;;;;9.43;8.60;;;;;;;4.05;64.88;94738.28;5030536;28;20219;-65
2023/04/06 02:14:43;;;;;;;9.43;8.52;;;;;;;4.05;65.25;94735.78;5030631;28;20265;-65
2023/04/06 02:17:10;;;;;;;9.38;8.48;;;;;;;3.97;65.31;94730.00;5030722;28;20200;-66
2023/04/06 02:19:36;;;;;;;10.40;8.90;;;;;;;3.98;65.85;94733.34;5029446;28;20192;-66
2023/04/06 02:22:03;;;;;;;9.45;8.45;;;;;;;4.03;64.85;94727.41;5030409;28;20200;-66
2023/04/06 02:24:30;;;;;;;9.68;8.80;;;;;;;4.04;64.96;94728.25;5018565;28;20203;-66
2023/04/06 02:26:57;;;;;;;9.60;8.70;;;;;;;4.05;65.00;94733.25;5030698;28;20225;-65
2023/04/06 02:29:23;;;;;;;10.63;9.30;;;;;;;3.98;65.52;94729.16;5030259;28;20204;-66
2023/04/06 02:31:51;;;;;;;10.52;8.50;;;;;;;4.10;65.26;94739.06;5030253;28;20200;-65
2023/04/06 02:34:18;;;;;;;9.45;8.55;;;;;;;4.11;64.83;94729.84;5030463;28;20196;-65
2023/04/06 02:36:46;;;;;;;11.80;9.13;;;;;;;4.13;65.07;94732.34;5029677;28;20243;-65
2023/04/06 02:39:15;;;;;;;9.27;8.38;;;;;;;4.14;65.00;94727.28;5030401;28;20206;-66
2023/04/06 02:41:42;;;;;;;8.85;8.02;;;;;;;4.19;64.32;94734.78;5030063;28;20219;-66
2023/04/06 02:44:09;;;;;;;9.15;8.25;;;;;;;4.20;64.55;94734.75;5030123;28;20677;-65
2023/04/06 02:46:36;;;;;;;9.95;8.98;;;;;;;4.23;64.62;94737.19;5030077;28;20200;-66
2023/04/06 02:49:04;;;;;;;11.55;9.20;;;;;;;4.22;64.06;94737.22;5030141;28;20204;-65
2023/04/06 02:51:31;;;;;;;8.82;8.00;;;;;;;4.06;63.62;94731.56;5029839;28;20265;-64
2023/04/06 02:53:58;;;;;;;9.05;8.15;;;;;;;4.14;63.78;94729.78;5030087;28;20744;-66
2023/04/06 02:56:24;;;;;;;10.65;8.50;;;;;;;4.15;64.07;94740.69;5029859;28;20709;-65
2023/04/06 02:58:51;;;;;;;9.07;8.27;;;;;;;4.22;63.35;94732.19;5029900;28;20273;-65
2023/04/06 03:01:18;;;;;;;8.73;8.00;;;;;;;4.19;63.17;94732.25;5030159;28;20199;-66
2023/04/06 03:03:45;;;;;;;9.17;8.33;;;;;;;4.20;63.17;94731.41;5030553;28;20625;-66
2023/04/06 03:06:13;;;;;;;8.17;7.60;;;;;;;4.15;63.21;94733.16;5042943;28;20206;-65
2023/04/06 03:08:40;;;;;;;7.13;6.53;;;;;;;4.24;62.37;94731.31;5029829;28;20207;-66
2023/04/06 03:11:06;;;;;;;9.95;7.07;;;;;;;4.04;62.88;94729.09;5029741;28;20223;-65
2023/04/06 03:13:33;;;;;;;7.10;6.45;;;;;;;4.23;62.58;94726.28;5030437;28;20261;-66
2023/04/06 03:16:00;;;;;;;7.20;6.70;;;;;;;4.16;62.76;94727.25;5029815;28;20204;-65
2023/04/06 03:18:27;;;;;;;7.68;7.00;;;;;;;4.17;63.04;94733.94;5030233;28;20215;-65
2023/04/06 03:20:54;;;;;;;7.53;6.90;;;;;;;4.17;62.92;94734.78;5029835;28;20284;-66
2023/04/06 03:23:22;;;;;;;7.25;6.65;;;;;;;4.36;62.25;94728.63;5030238;28;20574;-65
2023/04/06 03:25:49;;;;;;;7.30;6.60;;;;;;;4.31;62.24;94722.00;5029797;28;20200;-66
2023/04/06 03:28:16;;;;;;;7.07;6.38;;;;;;;4.45;61.71;94732.69;5029916;28;20269;-67
2023/04/06 03:30:43;;;;;;;12.52;6.70;;;;;;;4.39;61.18;94725.25;5032475;28;20226;-66
2023/04/06 03:33:10;;;;;;;7.35;6.65;;;;;;;4.40;61.68;94726.91;5033962;28;20681;-65
2023/04/06 03:35:37;;;;;;;6.85;6.25;;;;;;;4.51;61.48;94730.06;5033197;28;20234;-66
2023/04/06 03:38:03;;;;;;;7.82;6.90;;;;;;;4.39;62.04;94726.06;5033747;28;20269;-66
2023/04/06 03:40:32;;;;;;;9.63;7.60;;;;;;;4.40;62.40;94721.88;5033799;28;20254;-66
2023/04/06 03:42:58;;;;;;;11.15;7.93;;;;;;;4.48;62.88;94725.06;5033721;28;20665;-67
2023/04/06 03:45:25;;;;;;;10.43;8.63;;;;;;;4.54;62.95;94730.03;5033258;28;20203;-66
2023/04/06 03:47:52;;;;;;;13.77;8.68;;;;;;;4.47;63.27;94730.97;5033381;28;20228;-66
2023/04/06 03:50:19;;;;;;;10.23;9.20;;;;;;;4.37;63.66;94724.44;5033469;28;20273;-65
2023/04/06 03:52:46;;;;;;;10.23;9.15;;;;;;;4.42;63.94;94725.19;5033323;28;20226;-65
2023/04/06 03:55:12;;;;;;;9.52;8.50;;;;;;;4.47;63.53;94725.94;5032841;28;20215;-66
2023/04/06 03:57:41;;;;;;;9.98;8.95;;;;;;;4.36;64.07;94727.78;5044992;28;20199;-66
2023/04/06 04:00:09;;;;;;;10.30;9.30;;;;;;;4.15;64.68;94728.94;5033347;28;20199;-65
2023/04/06 04:02:36;;;;;;;11.30;10.20;;;;;;;4.27;65.37;94725.41;5033240;28;20269;-66
2023/04/06 04:05:03;;;;;;;10.77;9.70;;;;;;;4.33;65.06;94725.31;5039777;28;20195;-66
2023/04/06 04:07:30;;;;;;;11.95;9.80;;;;;;;4.30;65.28;94725.38;5038495;28;20692;-66
2023/04/06 04:09:57;;;;;;;15.27;10.63;;;;;;;4.22;65.70;94722.94;5033161;28;20200;-66
2023/04/06 04:12:23;;;;;;;11.75;9.82;;;;;;;4.25;65.78;94732.97;5033556;28;20258;-66
2023/04/06 04:14:51;;;;;;;12.38;11.18;;;;;;;4.35;65.61;94728.66;5044487;28;20575;-66
2023/04/06 04:17:18;;;;;;;14.45;10.55;;;;;;;4.39;66.07;94721.03;5032600;28;20647;-66
2023/04/06 04:19:45;;;;;;;12.88;11.32;;;;;;;4.39;65.03;94721.03;5033231;28;20258;-66
2023/04/06 04:22:12;;;;;;;10.30;9.40;;;;;;;4.44;64.50;94723.50;5032903;28;20274;-67
2023/04/06 04:24:38;;;;;;;10.00;8.98;;;;;;;4.39;64.40;94725.25;5033011;28;20212;-66
2023/04/06 04:27:05;;;;;;;11.20;10.10;;;;;;;4.34;65.01;94727.81;5032881;28;20277;-67
2023/04/06 04:29:32;;;;;;;11.13;10.02;;;;;;;4.35;65.62;94723.63;5029709;28;20333;-66
2023/04/06 04:32:00;;;;;;;13.23;10.13;;;;;;;4.44;64.74;94720.97;5029129;28;20330;-66
2023/04/06 04:34:27;;;;;;;14.45;10.50;;;;;;;4.39;64.49;94718.53;5032623;28;20200;-66
2023/04/06 04:36:54;;;;;;;15.10;10.35;;;;;;;4.41;65.09;94728.56;5032091;28;20236;-66
2023/04/06 04:39:21;;;;;;;18.25;10.00;;;;;;;4.27;65.88;94730.44;5032205;28;20733;-66
2023/04/06 04:41:48;;;;;;;12.20;10.90;;;;;;;4.23;66.09;94733.84;5031279;28;20658;-67
2023/04/06 04:44:14;;;;;;;12.68;11.38;;;;;;;4.21;65.80;94735.53;5032671;28;20207;-66
2023/04/06 04:46:42;;;;;;;10.75;9.70;;;;;;;4.28;65.77;94727.06;5032653;28;20203;-66
2023/04/06 04:49:10;;;;;;;14.98;10.40;;;;;;;4.33;65.26;94730.34;5032110;28;20218;-65
2023/04/06 04:51:37;;;;;;;10.32;9.25;;;;;;;4.30;64.33;94725.38;5032569;28;20223;-67
2023/04/06 04:54:04;;;;;;;8.65;7.50;;;;;;;4.41;63.35;94728.56;5032157;28;20677;-66
2023/04/06 04:56:30;;;;;;;8.45;7.55;;;;;;;4.59;61.65;94723.22;5032268;28;20204;-66
2023/04/06 04:58:57;;;;;;;9.45;8.55;;;;;;;4.69;61.54;94728.97;5032303;28;20207;-68
2023/04/06 05:01:24;;;;;;;8.60;7.75;;;;;;;4.73;61.37;94733.91;5032021;28;20267;-66
2023/04/06 05:03:51;;;;;;;9.93;7.15;;;;;;;4.66;61.27;94729.84;5031946;28;20576;-67
2023/04/06 05:06:20;;;;;;;9.18;8.23;;;;;;;4.60;61.49;94732.44;5044260;28;20203;-64
2023/04/06 05:08:46;;;;;;;13.05;8.80;;;;;;;4.52;62.10;94726.69;5031937;28;20255;-67
2023/04/06 05:11:13;;;;;;;8.48;7.78;;;;;;;4.62;61.42;94724.88;5030884;28;20674;-66
2023/04/06 05:13:40;;;;;;;9.45;8.55;;;;;;;4.66;62.00;94719.78;5032039;28;20266;-65
2023/04/06 05:16:07;;;;;;;9.10;8.05;;;;;;;4.76;60.94;94721.25;5031671;28;20202;-65
2023/04/06 05:18:34;;;;;;;20.45;14.70;;;;;;;4.61;62.72;94711.47;5031664;28;20257;-66
2023/04/06 05:21:00;;;;;;;12.20;10.18;;;;;;;4.81;61.79;94726.22;5031351;28;20200;-66
2023/04/06 05:23:28;;;;;;;10.15;7.93;;;;;;;4.82;62.04;94725.38;5031592;28;20208;-67
2023/04/06 05:25:55;;;;;;;15.55;8.93;;;;;;;4.92;62.04;94716.00;5027739;28;20203;-67
2023/04/06 05:28:22;;;;;;;9.27;8.45;;;;;;;4.94;62.04;94719.31;5031032;28;20282;-67
2023/04/06 05:30:49;;;;;;;10.02;8.82;;;;;;;5.04;61.99;94723.31;5029272;28;20239;-67
2023/04/06 05:33:16;;;;;;;10.15;9.20;;;;;;;5.13;61.77;94725.69;5019959;28;20265;-66
2023/04/06 05:35:43;;;;;;;10.55;9.45;;;;;;;5.09;61.10;94722.38;5030682;28;20721;-68
2023/04/06 05:38:10;;;;;;;10.88;9.75;;;;;;;5.11;61.77;94717.31;5031130;28;20203;-68
2023/04/06 05:40:40;;;;;;;10.45;9.25;;;;;;;5.01;61.58;94723.34;5030937;28;20298;-66
2023/04/06 05:43:07;;;;;;;11.25;9.77;;;;;;;5.04;61.51;94710.72;5029555;28;20230;-65
2023/04/06 05:45:34;;;;;;;13.75;9.90;;;;;;;5.27;61.66;94721.19;5031388;28;20203;-67
2023/04/06 05:48:01;;;;;;;15.93;11.13;;;;;;;5.35;61.30;94716.84;5028785;28;20559;-67
2023/04/06 05:50:28;;;;;;;12.18;9.77;;;;;;;5.37;61.31;94722.69;5017058;28;20598;-64
2023/04/06 05:52:55;;;;;;;11.40;10.23;;;;;;;5.33;60.97;94713.53;5017669;28;20299;-65
2023/04/06 05:55:22;;;;;;;12.65;10.38;;;;;;;5.45;60.62;94717.50;5016581;28;20235;-65
2023/04/06 05:57:50;;;;;;;15.00;10.68;;;;;;;5.53;60.86;94714.84;5018688;28;20212;-65
2023/04/06 06:00:17;;;;;;;13.63;10.48;;;;;;;5.54;60.53;94708.94;5017625;28;20211;-67
2023/04/06 06:02:44;;;;;;;16.48;10.40;;;;;;;5.63;60.45;94708.75;5017693;28;20808;-66
2023/04/06 06:05:11;;;;;;;13.75;10.20;;;;;;;5.71;60.06;94700.16;5016939;28;20208;-66
2023/04/06 06:07:38;;;;;;;15.68;12.18;;;;;;;5.72;61.06;94706.03;5016563;28;20218;-63
2023/04/06 06:10:05;;;;;;;12.77;10.40;;;;;;;5.74;61.28;94711.88;5018031;28;20204;-63
2023/04/06 06:12:32;;;;;;;12.30;9.18;;;;;;;5.78;60.87;94699.19;5023086;28;20779;-66
2023/04/06 06:15:00;;;;;;;11.30;9.52;;;;;;;5.85;60.41;94694.84;5030795;28;20286;-67
2023/04/06 06:17:27;;;;;;;10.68;9.57;;;;;;;5.98;59.57;94706.34;5028439;28;20207;-67
2023/04/06 06:19:53;;;;;;;10.45;9.32;;;;;;;6.38;58.99;94697.91;5031029;28;20210;-66
2023/04/06 06:22:20;;;;;;;12.25;10.32;;;;;;;6.68;57.91;94691.31;5028284;28;20258;-68
2023/04/06 06:24:47;;;;;;;11.55;9.55;;;;;;;6.77;57.11;94696.13;5030781;28;20269;-65
2023/04/06 06:27:14;;;;;;;15.07;10.55;;;;;;;6.89;57.27;94700.88;5031843;28;20215;-67
2023/04/06 06:29:41;;;;;;;10.48;9.07;;;;;;;6.88;57.04;94693.34;5028387;28;20231;-68
2023/04/06 06:32:10;;;;;;;15.20;10.98;;;;;;;6.93;56.52;94704.16;5027378;28;20360;-67
2023/04/06 06:34:37;;;;;;;10.43;9.35;;;;;;;7.09;56.42;94690.25;5030173;28;20282;-68
2023/04/06 06:37:03;;;;;;;14.50;8.73;;;;;;;6.91;56.45;94701.66;5028909;28;20192;-68
2023/04/06 06:39:30;;;;;;;11.82;9.30;;;;;;;7.08;56.27;94701.22;5023237;28;20204;-67
2023/04/06 06:41:57;;;;;;;10.57;9.52;;;;;;;6.83;56.94;94701.03;5028442;28;20661;-67
2023/04/06 06:44:25;;;;;;;13.48;10.60;;;;;;;6.72;57.26;94698.75;5030055;28;20204;-68
2023/04/06 06:46:51;;;;;;;14.88;11.13;;;;;;;6.62;57.39;94699.84;5029919;28;20241;-67
2023/04/06 06:49:20;;;;;;;15.52;12.93;;;;;;;6.74;57.39;94703.75;5027231;28;20203;-66
2023/04/06 06:51:46;;;;;;;16.35;10.45;;;;;;;6.72;57.39;94705.50;5029562;28;20273;-67
2023/04/06 06:54:13;;;;;;;16.38;10.68;;;;;;;6.76;57.27;94697.81;5030138;28;20719;-67
2023/04/06 06:56:40;;;;;;;10.57;9.07;;;;;;;6.93;56.36;94709.22;5029906;28;20203;-68
2023/04/06 06:59:07;;;;;;;12.45;9.40;;;;;;;6.88;56.35;94708.50;5025797;28;20204;-66
2023/04/06 07:01:34;;;;;;;11.00;8.90;;;;;;;7.06;56.78;94703.78;5028942;28;20228;-66
2023/04/06 07:04:01;;;;;;;11.63;8.68;;;;;;;7.10;55.77;94712.97;5021069;28;20287;-66
2023/04/06 07:06:29;;;;;;;11.75;10.10;;;;;;;7.18;55.85;94707.69;5040796;28;20196;-63
2023/04/06 07:08:56;;;;;;;14.88;9.35;;;;;;;7.10;56.25;94704.53;5027091;28;20568;-68
2023/04/06 07:11:22;;;;;;;9.90;8.77;;;;;;;7.14;55.68;94706.13;5029858;28;20292;-70
2023/04/06 07:13:49;;;;;;;9.77;8.85;;;;;;;7.06;55.48;94708.00;5031189;28;20208;-70
2023/04/06 07:16:16;;;;;;;11.80;9.02;;;;;;;7.11;56.04;94706.19;5027038;28;20204;-69
2023/04/06 07:18:43;;;;;;;11.25;9.00;;;;;;;7.20;56.03;94698.38;5033405;28;20257;-67
2023/04/06 07:21:10;;;;;;;13.77;10.27;;;;;;;7.41;55.13;94710.47;5033824;28;20567;-68
2023/04/06 07:23:38;;;;;;;11.18;9.60;;;;;;;7.62;54.96;94708.22;5012197;28;20208;-67
2023/04/06 07:26:04;;;;;;;13.98;10.68;;;;;;;7.87;54.28;94704.13;5018054;28;20261;-67
2023/04/06 07:28:31;;;;;;;19.13;10.90;;;;;;;7.79;53.54;94695.91;5018817;28;20246;-67
2023/04/06 07:30:58;;;;;;;23.92;11.65;;;;;;;7.74;54.40;94705.31;5017684;28;20262;-68
2023/04/06 07:33:29;;;;;;;29.00;11.65;;;;;;;7.70;54.52;94703.75;5018010;28;20553;-66
2023/04/06 07:35:56;;;;;;;14.35;10.20;;;;;;;7.83;53.70;94702.53;5014238;28;20366;-66
2023/04/06 07:38:23;;;;;;;16.38;10.05;;;;;;;8.01;53.45;94693.56;5015209;28;20208;-67
2023/04/06 07:40:51;;;;;;;12.35;9.73;;;;;;;8.84;51.32;94701.13;5017649;28;20207;-65
2023/04/06 07:43:18;;;;;;;11.80;8.65;;;;;;;10.05;48.83;94691.81;5016858;28;20211;-66
2023/04/06 07:45:45;;;;;;;11.20;9.40;;;;;;;11.21;45.51;94685.50;5016502;28;20293;-67
2023/04/06 07:48:11;;;;;;;10.23;8.15;;;;;;;11.40;44.70;94698.28;5016312;28;20203;-66
2023/04/06 07:50:38;;;;;;;11.88;9.30;;;;;;;11.16;44.62;94678.06;5017535;28;20283;-66
2023/04/06 07:53:06;;;;;;;12.77;8.70;;;;;;;11.30;43.88;94681.78;5016467;28;20996;-65
2023/04/06 07:55:33;;;;;;;9.68;8.60;;;;;;;12.24;43.10;94686.06;5017394;28;20210;-65
2023/04/06 07:58:01;;;;;;;11.00;9.05;;;;;;;14.04;39.98;94672.03;5016220;28;20258;-67
2023/04/06 08:00:28;;;;;;;8.90;8.10;;;;;;;14.79;37.73;94676.47;5018438;28;20223;-67
2023/04/06 08:02:54;;;;;;;8.60;7.80;;;;;;;16.18;35.17;94676.78;5017033;28;20212;-67
2023/04/06 08:05:21;;;;;;;11.27;7.43;;;;;;;16.70;33.26;94678.72;5017301;28;20273;-66
2023/04/06 08:07:48;;;;;;;8.30;7.40;;;;;;;18.17;31.36;94673.19;5015814;28;20689;-68
2023/04/06 08:10:14;;;;;;;7.78;6.97;;;;;;;19.02;29.27;94674.84;5017694;28;20207;-69
2023/04/06 08:12:41;;;;;;;9.63;7.03;;;;;;;17.75;30.59;94666.66;5017137;28;20325;-68
2023/04/06 08:15:10;;;;;;;7.50;6.93;;;;;;;16.93;31.30;94680.63;5016874;28;20720;-67
2023/04/06 08:17:37;;;;;;;9.43;7.65;;;;;;;16.19;32.12;94670.75;5015040;28;20204;-68
2023/04/06 08:20:04;;;;;;;8.68;7.93;;;;;;;15.88;32.99;94673.53;5017572;28;20203;-67
2023/04/06 08:22:31;;;;;;;10.63;7.03;;;;;;;16.01;32.36;94663.38;5016825;28;20208;-67
2023/04/06 08:24:57;;;;;;;8.52;7.60;;;;;;;15.02;34.43;94676.91;5017885;28;20686;-70
2023/04/06 08:27:24;;;;;;;7.60;7.00;;;;;;;14.24;35.68;94683.75;5016625;28;20215;-66
2023/04/06 08:29:51;;;;;;;6.80;6.25;;;;;;;15.38;33.51;94685.00;5017304;28;20203;-68
2023/04/06 08:32:19;;;;;;;7.10;6.60;;;;;;;16.23;32.48;94682.47;5017356;28;20223;-69
2023/04/06 08:34:47;;;;;;;7.53;7.03;;;;;;;16.53;32.08;94684.06;5016526;28;20333;-69
2023/04/06 08:37:13;;;;;;;8.13;7.50;;;;;;;17.13;31.47;94681.06;5017743;28;20215;-67
2023/04/06 08:39:40;;;;;;;7.28;6.70;;;;;;;17.08;31.16;94681.38;5017573;28;20254;-67
2023/04/06 08:42:14;;;;;;;11.43;7.47;;;;;;;17.07;31.27;94678.94;5016581;28;20212;-66
2023/04/06 08:44:41;;;;;;;7.65;7.03;;;;;;;16.67;31.65;94679.72;5017730;28;20207;-66
2023/04/06 08:47:09;;;;;;;7.88;7.28;;;;;;;15.48;33.47;94680.19;5016350;28;20212;-66
2023/04/06 08:49:38;;;;;;;7.45;6.68;;;;;;;14.92;34.25;94682.53;5017104;28;20293;-67
2023/04/06 08:52:07;;;;;;;7.95;7.25;;;;;;;14.51;35.24;94686.56;5016938;28;20312;-69
2023/04/06 08:54:34;;;;;;;11.55;7.97;;;;;;;13.77;38.75;94688.81;5017619;28;20290;-67
2023/04/06 08:57:02;;;;;;;15.30;8.77;;;;;;;13.11;41.01;94693.84;5018401;28;20215;-70
2023/04/06 08:59:29;;;;;;;9.95;9.02;;;;;;;12.92;42.17;94688.78;5017050;28;20322;-66
2023/04/06 09:01:57;;;;;;;7.97;7.30;;;;;;;13.55;38.98;94679.69;5017645;28;20761;-68
2023/04/06 09:04:23;;;;;;;7.10;6.57;;;;;;;14.62;37.65;94684.22;5016680;28;20366;-69
2023/04/06 09:06:52;;;;;;;7.97;7.03;;;;;;;15.97;36.24;94678.13;5016609;28;20210;-70
2023/04/06 09:09:19;;;;;;;7.35;6.70;;;;;;;17.24;32.07;94678.63;5016671;28;20212;-68
2023/04/06 09:11:48;;;;;;;9.15;8.30;;;;;;;16.93;31.99;94670.34;5015794;28;20204;-71
2023/04/06 09:14:16;;;;;;;8.45;7.63;;;;;;;17.11;31.74;94662.38;5016582;28;20257;-68
2023/04/06 09:16:45;;;;;;;8.27;7.45;;;;;;;17.77;31.35;94669.13;5016840;28;20697;-71
2023/04/06 09:19:13;;;;;;;8.30;7.43;;;;;;;17.98;30.34;94657.38;5016296;28;20566;-69
2023/04/06 09:21:40;;;;;;;8.82;7.18;;;;;;;17.95;30.59;94655.03;5016654;28;20212;-67
2023/04/06 09:24:09;;;;;;;12.68;7.93;;;;;;;17.32;31.91;94661.00;5016577;28;20745;-70
2023/04/06 09:26:47;;;;;;;10.30;8.23;;;;;;;16.19;33.60;94657.94;5016150;28;20219;-68
2023/04/06 09:29:24;;;;;;;12.05;7.60;;;;;;;14.94;34.56;94672.22;5016875;28;20214;-68
2023/04/06 09:31:51;;;;;;;7.43;6.75;;;;;;;14.49;36.05;94655.97;5016441;28;20207;-69
2023/04/06 09:34:22;;;;;;;9.07;7.93;;;;;;;14.11;36.70;94662.28;5019355;28;20233;-69
2023/04/06 09:36:49;;;;;;;8.30;7.57;;;;;;;13.82;37.51;94661.31;5016670;28;20244;-68
2023/04/06 09:39:21;;;;;;;9.57;7.72;;;;;;;13.80;38.16;94665.66;5016490;28;20298;-71
2023/04/06 09:41:51;;;;;;;8.00;7.45;;;;;;;13.84;36.92;94664.59;5015757;28;20229;-68
2023/04/06 09:44:18;;;;;;;8.40;7.70;;;;;;;13.98;37.74;94658.75;5017846;28;20211;-68
2023/04/06 09:46:46;;;;;;;8.07;7.25;;;;;;;13.84;37.47;94664.59;5016247;28;20211;-68
2023/04/06 09:49:14;;;;;;;8.88;7.72;;;;;;;13.74;37.14;94668.53;5016458;28;20921;-72
2023/04/06 09:51:45;;;;;;;9.43;7.35;;;;;;;13.69;38.01;94661.09;5015358;28;21271;-70
2023/04/06 09:54:16;;;;;;;8.10;7.13;;;;;;;13.10;38.87;94653.94;5016101;28;20210;-68
2023/04/06 09:56:47;;;;;;;7.72;6.93;;;;;;;12.74;39.04;94651.44;5017361;28;20211;-70
2023/04/06 09:59:17;;;;;;;10.18;7.97;;;;;;;12.90;40.48;94662.53;5015332;28;20249;-70
2023/04/06 10:01:45;;;;;;;7.43;6.75;;;;;;;13.19;38.93;94672.16;5016110;28;20298;-68
2023/04/06 10:04:25;;;;;;;7.70;6.93;;;;;;;13.04;38.16;94666.97;5015880;28;20211;-69
2023/04/06 10:06:52;;;;;;;7.95;6.82;;;;;;;13.06;38.13;94670.28;5015704;28;20759;-70
2023/04/06 10:09:26;;;;;;;7.40;6.80;;;;;;;12.95;39.73;94670.78;5016157;28;20295;-69
2023/04/06 10:11:56;;;;;;;8.45;7.05;;;;;;;13.19;38.89;94658.59;5015613;28;20211;-68
2023/04/06 10:14:23;;;;;;;8.73;7.93;;;;;;;13.36;39.03;94666.22;5015256;28;20266;-67
2023/04/06 10:16:50;;;;;;;7.63;6.97;;;;;;;13.32;38.30;94664.72;5015890;28;20305;-67
2023/04/06 10:19:27;;;;;;;8.10;7.30;;;;;;;12.96;38.24;94664.78;5016210;28;20701;-68
2023/04/06 10:21:58;;;;;;;7.13;6.63;;;;;;;12.81;39.09;94655.34;5014849;28;20771;-70
2023/04/06 10:24:24;;;;;;;7.22;6.53;;;;;;;12.94;38.55;94667.41;5016232;28;20208;-69
2023/04/06 10:27:02;;;;;;;6.72;6.22;;;;;;;12.80;38.17;94664.72;5015520;28;20268;-69
2023/04/06 10:29:29;;;;;;;6.25;5.85;;;;;;;12.72;38.34;94648.97;5015346;28;20241;-68
2023/04/06 10:31:56;;;;;;;7.53;6.93;;;;;;;12.73;39.43;94648.06;5015396;28;20211;-68
2023/04/06 10:34:23;;;;;;;6.47;5.88;;;;;;;12.71;39.55;94649.88;5015856;28;20560;-70
2023/04/06 10:36:49;;;;;;;7.50;6.80;;;;;;;12.35;39.22;94641.44;5014895;28;20257;-69
2023/04/06 10:39:26;;;;;;;7.80;7.20;;;;;;;12.31;40.05;94637.38;5015137;28;20258;-70
2023/04/06 10:41:53;;;;;;;7.05;6.60;;;;;;;11.95;41.26;94645.81;5015544;28;20298;-69
2023/04/06 10:44:23;;;;;;;8.02;7.35;;;;;;;11.80;40.99;94633.78;5015611;28;20208;-70
2023/04/06 10:46:57;;;;;;;8.48;7.78;;;;;;;11.88;41.05;94641.88;5016241;28;20694;-70
2023/04/06 10:49:25;;;;;;;6.82;6.32;;;;;;;11.93;41.27;94648.41;5014784;28;20643;-69
2023/04/06 10:51:54;;;;;;;8.23;7.55;;;;;;;11.85;40.64;94644.59;5014301;28;20214;-68
2023/04/06 10:54:22;;;;;;;8.73;7.93;;;;;;;12.08;40.91;94638.44;5015219;28;20237;-69
2023/04/06 10:56:49;;;;;;;7.15;6.55;;;;;;;12.14;40.39;94646.63;5015423;28;20616;-67
2023/04/06 10:59:21;;;;;;;6.25;5.75;;;;;;;12.18;40.06;94648.13;5015430;28;20293;-70
2023/04/06 11:01:49;;;;;;;8.05;7.45;;;;;;;12.16;39.96;94647.38;5014048;28;20218;-68
2023/04/06 11:04:17;;;;;;;6.90;6.30;;;;;;;11.90;40.87;94638.38;5014926;28;20266;-69
2023/04/06 11:06:48;;;;;;;7.18;6.57;;;;;;;11.92;40.09;94628.13;5015260;28;20207;-68
2023/04/06 11:09:25;;;;;;;6.95;6.35;;;;;;;11.90;41.47;94640.09;5014561;28;20606;-68
2023/04/06 11:11:52;;;;;;;8.57;6.35;;;;;;;12.02;40.68;94633.63;5014456;28;20215;-68
2023/04/06 11:14:19;;;;;;;7.18;6.57;;;;;;;12.13;39.76;94622.03;5014613;28;20709;-72
2023/04/06 11:16:49;;;;;;;7.38;6.65;;;;;;;11.99;40.31;94616.75;5015448;28;20297;-69
2023/04/06 11:19:16;;;;;;;7.30;6.05;;;;;;;11.77;40.13;94609.28;5015163;28;20212;-69
2023/04/06 11:21:47;;;;;;;7.95;6.60;;;;;;;11.85;40.60;94614.88;5014728;28;20274;-68
2023/04/06 11:24:16;;;;;;;6.45;5.90;;;;;;;12.28;40.50;94623.06;5014797;28;20203;-67
2023/04/06 11:26:45;;;;;;;7.07;6.47;;;;;;;12.70;39.21;94615.06;5014929;28;21241;-69
2023/04/06 11:29:13;;;;;;;6.85;6.30;;;;;;;12.82;38.39;94622.13;5014679;28;20215;-69
2023/04/06 11:31:45;;;;;;;7.25;6.65;;;;;;;12.61;38.51;94602.78;5013855;28;20258;-67
2023/04/06 11:34:18;;;;;;;11.02;7.55;;;;;;;12.61;38.83;94613.00;5014625;28;20231;-67
2023/04/06 11:36:45;;;;;;;8.10;7.30;;;;;;;12.86;39.05;94608.34;5014797;28;20673;-70